QTR48L OTHH-EKCH
Flight info
| Callsign | QTR48L |
|---|---|
| Flight time | 6h 42m |
| Altitude | 38000 |
| Route | DATRI2W/34L DATRI L564 MIGMA M628 AMBAG M321 KSA T503 OVANO L768 FIRAS R655 KTN R785 NIKAS L619 VESAR UB545 MUT UL619 MAKOL DCT IVDEK DCT OPT DCT KENIN DCT HATIP DCT NUBLI DCT VIDEV N133 POLON DCT RUMAR DCT ROE M743 TIDVU |
| Aircraft | B77L/H-SDE1E2E3FGHIJ2J3J4J5M1RWXY/LB1D1 |
Departure
| Time | 2026-05-04 14:07 |
|---|---|
| Airport | Hamad International Airport (OTHH) |
Arrival
| Time | 2026-05-04 20:50 |
|---|---|
| Airport | Copenhagen Kastrup Airport (EKCH) |
| Time | Latitude | Longitude | Altitude | Speed | Heading |
|---|---|---|---|---|---|
| 2026-05-04 13:33 | 25.26473 | 51.60558 | 34 ft | 0 kts | 68° |
| 2026-05-04 13:58 | 25.26471 | 51.60551 | 34 ft | 4 kts | 68° |
| 2026-05-04 13:58 | 25.26454 | 51.60501 | 34 ft | 4 kts | 78° |
| 2026-05-04 13:58 | 25.26451 | 51.60471 | 34 ft | 4 kts | 99° |
| 2026-05-04 13:59 | 25.26460 | 51.60447 | 33 ft | 4 kts | 149° |
| 2026-05-04 13:59 | 25.26483 | 51.60436 | 33 ft | 4 kts | 158° |
| 2026-05-04 13:59 | 25.26493 | 51.60432 | 32 ft | 0 kts | 158° |
| 2026-05-04 14:03 | 25.26492 | 51.60432 | 34 ft | 3 kts | 158° |
| 2026-05-04 14:03 | 25.26462 | 51.60445 | 34 ft | 5 kts | 158° |
| 2026-05-04 14:03 | 25.26425 | 51.60462 | 34 ft | 9 kts | 158° |
| 2026-05-04 14:04 | 25.26166 | 51.60576 | 34 ft | 24 kts | 158° |
| 2026-05-04 14:04 | 25.26012 | 51.60643 | 34 ft | 24 kts | 158° |
| 2026-05-04 14:04 | 25.25859 | 51.60711 | 34 ft | 24 kts | 158° |
| 2026-05-04 14:05 | 25.25657 | 51.60785 | 34 ft | 9 kts | 201° |
| 2026-05-04 14:05 | 25.25618 | 51.60729 | 34 ft | 9 kts | 250° |
| 2026-05-04 14:05 | 25.25592 | 51.60658 | 32 ft | 11 kts | 248° |
| 2026-05-04 14:06 | 25.25563 | 51.60580 | 30 ft | 9 kts | 248° |
| 2026-05-04 14:06 | 25.25576 | 51.60520 | 28 ft | 9 kts | 330° |
| 2026-05-04 14:06 | 25.25616 | 51.60503 | 29 ft | 9 kts | 339° |
| 2026-05-04 14:06 | 25.25799 | 51.60429 | 32 ft | 42 kts | 338° |
| 2026-05-04 14:07 | 25.26303 | 51.60207 | 31 ft | 114 kts | 338° |
| 2026-05-04 14:07 | 25.27229 | 51.59803 | 39 ft | 171 kts | 340° |
| 2026-05-04 14:07 | 25.28322 | 51.59315 | 719 ft | 163 kts | 340° |
| 2026-05-04 14:07 | 25.29353 | 51.58871 | 1466 ft | 159 kts | 338° |
| 2026-05-04 14:08 | 25.30408 | 51.58408 | 2005 ft | 170 kts | 339° |
| 2026-05-04 14:08 | 25.31602 | 51.57882 | 2214 ft | 200 kts | 340° |
| 2026-05-04 14:08 | 25.32983 | 51.57273 | 2459 ft | 227 kts | 340° |
| 2026-05-04 14:08 | 25.34533 | 51.56586 | 2829 ft | 249 kts | 340° |
| 2026-05-04 14:09 | 25.37799 | 51.55132 | 4394 ft | 255 kts | 339° |
| 2026-05-04 14:09 | 25.39459 | 51.54392 | 5262 ft | 258 kts | 339° |
| 2026-05-04 14:10 | 25.42826 | 51.52892 | 6907 ft | 264 kts | 338° |
| 2026-05-04 14:10 | 25.44545 | 51.52129 | 7693 ft | 268 kts | 337° |
| 2026-05-04 14:10 | 25.46263 | 51.51311 | 8446 ft | 269 kts | 329° |
| 2026-05-04 14:10 | 25.47621 | 51.49865 | 9055 ft | 277 kts | 301° |
| 2026-05-04 14:11 | 25.48317 | 51.47895 | 9869 ft | 281 kts | 283° |
| 2026-05-04 14:11 | 25.48288 | 51.43370 | 10768 ft | 318 kts | 268° |
| 2026-05-04 14:11 | 25.48143 | 51.40827 | 10977 ft | 344 kts | 268° |
| 2026-05-04 14:12 | 25.47997 | 51.38095 | 11285 ft | 365 kts | 268° |
| 2026-05-04 14:12 | 25.47861 | 51.35228 | 11946 ft | 376 kts | 268° |
| 2026-05-04 14:12 | 25.46688 | 51.29625 | 13357 ft | 391 kts | 238° |
| 2026-05-04 14:13 | 25.44858 | 51.27387 | 14214 ft | 397 kts | 220° |
| 2026-05-04 14:13 | 25.42453 | 51.25862 | 15083 ft | 401 kts | 203° |
| 2026-05-04 14:13 | 25.39721 | 51.25179 | 15883 ft | 408 kts | 184° |
| 2026-05-04 14:13 | 25.36870 | 51.25219 | 16449 ft | 414 kts | 180° |
| 2026-05-04 14:14 | 25.33967 | 51.25351 | 17117 ft | 420 kts | 180° |
| 2026-05-04 14:14 | 25.28088 | 51.25503 | 18636 ft | 423 kts | 180° |
| 2026-05-04 14:14 | 25.25190 | 51.26010 | 19120 ft | 432 kts | 164° |
| 2026-05-04 14:15 | 25.19531 | 51.28569 | 20214 ft | 444 kts | 160° |
| 2026-05-04 14:15 | 25.13745 | 51.31109 | 21528 ft | 450 kts | 161° |
| 2026-05-04 14:16 | 25.07836 | 51.33592 | 22679 ft | 459 kts | 162° |
| 2026-05-04 14:16 | 25.04831 | 51.34853 | 23218 ft | 464 kts | 162° |
| 2026-05-04 14:17 | 24.98743 | 51.37414 | 24161 ft | 472 kts | 162° |
| 2026-05-04 14:17 | 24.95701 | 51.38692 | 24643 ft | 474 kts | 162° |
| 2026-05-04 14:17 | 24.89729 | 51.41914 | 25504 ft | 488 kts | 147° |
| 2026-05-04 14:18 | 24.87014 | 51.44193 | 25913 ft | 493 kts | 145° |
| 2026-05-04 14:18 | 24.81506 | 51.48775 | 26746 ft | 499 kts | 147° |
| 2026-05-04 14:19 | 24.75805 | 51.53235 | 27610 ft | 504 kts | 149° |
| 2026-05-04 14:19 | 24.72779 | 51.55130 | 27829 ft | 501 kts | 163° |
| 2026-05-04 14:19 | 24.69420 | 51.55996 | 28110 ft | 496 kts | 179° |
| 2026-05-04 14:19 | 24.65993 | 51.55889 | 28536 ft | 488 kts | 193° |
| 2026-05-04 14:20 | 24.62708 | 51.55085 | 28859 ft | 486 kts | 197° |
| 2026-05-04 14:20 | 24.59440 | 51.54227 | 29141 ft | 490 kts | 197° |
| 2026-05-04 14:20 | 24.56105 | 51.53378 | 29496 ft | 493 kts | 197° |
| 2026-05-04 14:21 | 24.49416 | 51.51755 | 30476 ft | 489 kts | 196° |
| 2026-05-04 14:21 | 24.46095 | 51.50971 | 30994 ft | 487 kts | 196° |
| 2026-05-04 14:21 | 24.42783 | 51.50193 | 31491 ft | 485 kts | 196° |
| 2026-05-04 14:21 | 24.39480 | 51.49416 | 31939 ft | 484 kts | 196° |
| 2026-05-04 14:22 | 24.36212 | 51.48645 | 32344 ft | 484 kts | 196° |
| 2026-05-04 14:22 | 24.32919 | 51.47868 | 32801 ft | 483 kts | 196° |
| 2026-05-04 14:22 | 24.29637 | 51.47094 | 33304 ft | 481 kts | 196° |
| 2026-05-04 14:22 | 24.26369 | 51.46325 | 33807 ft | 480 kts | 196° |
| 2026-05-04 14:23 | 24.19765 | 51.45176 | 34560 ft | 483 kts | 188° |
| 2026-05-04 14:23 | 24.16406 | 51.45112 | 34941 ft | 484 kts | 184° |
| 2026-05-04 14:23 | 24.13038 | 51.45153 | 35291 ft | 484 kts | 184° |
| 2026-05-04 14:24 | 24.09718 | 51.45194 | 35629 ft | 483 kts | 184° |
| 2026-05-04 14:24 | 24.06357 | 51.45227 | 35981 ft | 482 kts | 184° |
| 2026-05-04 14:24 | 24.03005 | 51.45250 | 36354 ft | 481 kts | 185° |
| 2026-05-04 14:24 | 23.99665 | 51.45265 | 36722 ft | 479 kts | 185° |
| 2026-05-04 14:25 | 23.96333 | 51.45275 | 37074 ft | 478 kts | 185° |
| 2026-05-04 14:25 | 23.89683 | 51.45290 | 37675 ft | 478 kts | 185° |
| 2026-05-04 14:25 | 23.86341 | 51.45296 | 37714 ft | 482 kts | 185° |
| 2026-05-04 14:26 | 23.79614 | 51.45312 | 37761 ft | 483 kts | 185° |
| 2026-05-04 14:26 | 23.72923 | 51.45334 | 37754 ft | 477 kts | 185° |
| 2026-05-04 14:27 | 23.66313 | 51.45352 | 37764 ft | 475 kts | 185° |
| 2026-05-04 14:27 | 23.59711 | 51.45369 | 37758 ft | 474 kts | 185° |
| 2026-05-04 14:28 | 23.53144 | 51.45386 | 37761 ft | 475 kts | 185° |
| 2026-05-04 14:28 | 23.46515 | 51.45408 | 37761 ft | 476 kts | 184° |
| 2026-05-04 14:29 | 23.34346 | 51.45613 | 37756 ft | 479 kts | 184° |
| 2026-05-04 14:30 | 23.27668 | 51.45723 | 37763 ft | 480 kts | 184° |
| 2026-05-04 14:31 | 23.17626 | 51.45881 | 37760 ft | 482 kts | 184° |
| 2026-05-04 14:32 | 23.04179 | 51.46090 | 37755 ft | 484 kts | 183° |
| 2026-05-04 14:32 | 22.97493 | 51.46190 | 37752 ft | 481 kts | 185° |
| 2026-05-04 14:32 | 22.94209 | 51.45738 | 37744 ft | 470 kts | 201° |
| 2026-05-04 14:33 | 22.91277 | 51.44281 | 37755 ft | 461 kts | 218° |
| 2026-05-04 14:33 | 22.88896 | 51.42013 | 37762 ft | 454 kts | 232° |
| 2026-05-04 14:33 | 22.87136 | 51.39199 | 37755 ft | 450 kts | 244° |
| 2026-05-04 14:34 | 22.85154 | 51.32801 | 37734 ft | 449 kts | 266° |
| 2026-05-04 14:34 | 22.85565 | 51.26053 | 37740 ft | 450 kts | 275° |
| 2026-05-04 14:35 | 22.86161 | 51.19325 | 37754 ft | 452 kts | 274° |
| 2026-05-04 14:35 | 22.86626 | 51.12512 | 37756 ft | 453 kts | 273° |
| 2026-05-04 14:36 | 22.87079 | 51.05675 | 37747 ft | 455 kts | 273° |
| 2026-05-04 14:36 | 22.87535 | 50.98876 | 37753 ft | 455 kts | 273° |
| 2026-05-04 14:37 | 22.87994 | 50.92018 | 37754 ft | 455 kts | 273° |
| 2026-05-04 14:37 | 22.88448 | 50.85168 | 37753 ft | 455 kts | 273° |
| 2026-05-04 14:38 | 22.88899 | 50.78324 | 37750 ft | 455 kts | 273° |
| 2026-05-04 14:38 | 22.89346 | 50.71484 | 37749 ft | 454 kts | 273° |
| 2026-05-04 14:39 | 22.89789 | 50.64664 | 37750 ft | 453 kts | 273° |
| 2026-05-04 14:39 | 22.90229 | 50.57845 | 37762 ft | 452 kts | 272° |
| 2026-05-04 14:40 | 22.90878 | 50.47691 | 37751 ft | 451 kts | 272° |
| 2026-05-04 14:40 | 22.91309 | 50.40901 | 37748 ft | 451 kts | 272° |
| 2026-05-04 14:41 | 22.91736 | 50.34116 | 37751 ft | 451 kts | 272° |
| 2026-05-04 14:42 | 22.92583 | 50.20534 | 37753 ft | 451 kts | 272° |
| 2026-05-04 14:42 | 22.93002 | 50.13745 | 37753 ft | 451 kts | 272° |
| 2026-05-04 14:43 | 22.93419 | 50.06942 | 37752 ft | 452 kts | 272° |
| 2026-05-04 14:43 | 22.93833 | 50.00140 | 37750 ft | 452 kts | 272° |
| 2026-05-04 14:44 | 22.94242 | 49.93376 | 37750 ft | 452 kts | 272° |
| 2026-05-04 14:44 | 22.94651 | 49.86561 | 37756 ft | 453 kts | 272° |
| 2026-05-04 14:45 | 22.95057 | 49.79742 | 37749 ft | 453 kts | 272° |
| 2026-05-04 14:45 | 22.95460 | 49.72923 | 37747 ft | 453 kts | 271° |
| 2026-05-04 14:46 | 22.95861 | 49.66102 | 37747 ft | 453 kts | 271° |
| 2026-05-04 14:46 | 22.96259 | 49.59273 | 37747 ft | 453 kts | 271° |
| 2026-05-04 14:47 | 22.96653 | 49.52452 | 37749 ft | 453 kts | 271° |
| 2026-05-04 14:47 | 22.97045 | 49.45630 | 37747 ft | 453 kts | 271° |
| 2026-05-04 14:48 | 22.97432 | 49.38839 | 37745 ft | 453 kts | 271° |
| 2026-05-04 14:48 | 22.97820 | 49.31980 | 37745 ft | 453 kts | 271° |
| 2026-05-04 14:49 | 22.98201 | 49.25195 | 37746 ft | 453 kts | 271° |
| 2026-05-04 14:49 | 22.98581 | 49.18365 | 37752 ft | 453 kts | 271° |
| 2026-05-04 14:50 | 22.98958 | 49.11542 | 37746 ft | 453 kts | 271° |
| 2026-05-04 14:50 | 22.99333 | 49.04716 | 37746 ft | 452 kts | 271° |
| 2026-05-04 14:51 | 22.99715 | 48.97948 | 37745 ft | 452 kts | 272° |
| 2026-05-04 14:51 | 23.00251 | 48.91144 | 37747 ft | 452 kts | 273° |
| 2026-05-04 14:52 | 23.00831 | 48.84345 | 37751 ft | 452 kts | 273° |
| 2026-05-04 14:52 | 23.01392 | 48.77537 | 37750 ft | 452 kts | 272° |
| 2026-05-04 14:53 | 23.01937 | 48.70736 | 37757 ft | 452 kts | 272° |
| 2026-05-04 14:53 | 23.02475 | 48.63933 | 37758 ft | 452 kts | 272° |
| 2026-05-04 14:54 | 23.03010 | 48.57130 | 37771 ft | 452 kts | 272° |
| 2026-05-04 14:54 | 23.03539 | 48.50372 | 37758 ft | 452 kts | 272° |
| 2026-05-04 14:55 | 23.04069 | 48.43568 | 37757 ft | 451 kts | 272° |
| 2026-05-04 14:55 | 23.04596 | 48.36777 | 37755 ft | 451 kts | 272° |
| 2026-05-04 14:56 | 23.05119 | 48.29983 | 37760 ft | 451 kts | 272° |
| 2026-05-04 14:56 | 23.05639 | 48.23194 | 37764 ft | 451 kts | 272° |
| 2026-05-04 14:57 | 23.06156 | 48.16415 | 37759 ft | 450 kts | 272° |
| 2026-05-04 14:57 | 23.06665 | 48.09683 | 37761 ft | 450 kts | 272° |
| 2026-05-04 14:58 | 23.07177 | 48.02896 | 37761 ft | 450 kts | 272° |
| 2026-05-04 14:58 | 23.07684 | 47.96125 | 37779 ft | 450 kts | 272° |
| 2026-05-04 14:59 | 23.08188 | 47.89356 | 37770 ft | 450 kts | 272° |
| 2026-05-04 15:00 | 23.09613 | 47.79381 | 37784 ft | 454 kts | 292° |
| 2026-05-04 15:00 | 23.11308 | 47.76413 | 37779 ft | 461 kts | 304° |
| 2026-05-04 15:00 | 23.13496 | 47.73887 | 37782 ft | 470 kts | 316° |
| 2026-05-04 15:01 | 23.21905 | 47.68193 | 37803 ft | 478 kts | 324° |
| 2026-05-04 15:01 | 23.27614 | 47.64458 | 37800 ft | 479 kts | 323° |
| 2026-05-04 15:02 | 23.33283 | 47.60629 | 37801 ft | 480 kts | 323° |
| 2026-05-04 15:02 | 23.38956 | 47.56765 | 37798 ft | 481 kts | 323° |
| 2026-05-04 15:03 | 23.44597 | 47.52928 | 37812 ft | 481 kts | 323° |
| 2026-05-04 15:03 | 23.50292 | 47.49060 | 37807 ft | 482 kts | 323° |
| 2026-05-04 15:04 | 23.55973 | 47.45211 | 37815 ft | 481 kts | 323° |
| 2026-05-04 15:04 | 23.61652 | 47.41358 | 37827 ft | 480 kts | 322° |
| 2026-05-04 15:05 | 23.67322 | 47.37504 | 37819 ft | 480 kts | 322° |
| 2026-05-04 15:05 | 23.72981 | 47.33654 | 37817 ft | 479 kts | 322° |
| 2026-05-04 15:06 | 23.78638 | 47.29800 | 37820 ft | 478 kts | 322° |
| 2026-05-04 15:07 | 23.87051 | 47.24062 | 37815 ft | 476 kts | 322° |
| 2026-05-04 15:07 | 23.92666 | 47.20227 | 37829 ft | 475 kts | 322° |
| 2026-05-04 15:08 | 23.98272 | 47.16393 | 37811 ft | 475 kts | 322° |
| 2026-05-04 15:08 | 24.03874 | 47.12559 | 37838 ft | 475 kts | 322° |
| 2026-05-04 15:09 | 24.09484 | 47.08717 | 37836 ft | 475 kts | 322° |
| 2026-05-04 15:09 | 24.15427 | 47.05407 | 37845 ft | 483 kts | 331° |
| 2026-05-04 15:10 | 24.24768 | 47.01155 | 37851 ft | 485 kts | 331° |
| 2026-05-04 15:11 | 24.34113 | 46.96845 | 37865 ft | 486 kts | 331° |
| 2026-05-04 15:11 | 24.40347 | 46.93937 | 37867 ft | 488 kts | 330° |
| 2026-05-04 15:12 | 24.46556 | 46.91035 | 37857 ft | 488 kts | 330° |
| 2026-05-04 15:12 | 24.52816 | 46.88110 | 37861 ft | 489 kts | 330° |
| 2026-05-04 15:13 | 24.59075 | 46.85182 | 37878 ft | 489 kts | 330° |
| 2026-05-04 15:13 | 24.65336 | 46.82251 | 37872 ft | 489 kts | 330° |
| 2026-05-04 15:14 | 24.71597 | 46.79316 | 37875 ft | 489 kts | 330° |
| 2026-05-04 15:14 | 24.77851 | 46.76381 | 37899 ft | 488 kts | 330° |
| 2026-05-04 15:15 | 24.84065 | 46.73461 | 37874 ft | 488 kts | 330° |
| 2026-05-04 15:15 | 24.90314 | 46.70521 | 37875 ft | 488 kts | 330° |
| 2026-05-04 15:16 | 24.99198 | 46.65367 | 37893 ft | 474 kts | 317° |
| 2026-05-04 15:17 | 25.06558 | 46.58277 | 37888 ft | 466 kts | 310° |
| 2026-05-04 15:17 | 25.13618 | 46.50974 | 37901 ft | 466 kts | 310° |
| 2026-05-04 15:18 | 25.18371 | 46.46097 | 37888 ft | 466 kts | 310° |
| 2026-05-04 15:19 | 25.25507 | 46.38790 | 37878 ft | 465 kts | 310° |
| 2026-05-04 15:19 | 25.32589 | 46.31525 | 37890 ft | 465 kts | 309° |
| 2026-05-04 15:20 | 25.36532 | 46.27473 | 37879 ft | 465 kts | 309° |
| 2026-05-04 15:20 | 25.41262 | 46.22607 | 37879 ft | 464 kts | 309° |
| 2026-05-04 15:21 | 25.45986 | 46.17743 | 37873 ft | 464 kts | 309° |
| 2026-05-04 15:22 | 25.53073 | 46.10434 | 37878 ft | 463 kts | 309° |
| 2026-05-04 15:22 | 25.60148 | 46.03125 | 37870 ft | 463 kts | 309° |
| 2026-05-04 15:23 | 25.64834 | 45.98280 | 37888 ft | 463 kts | 309° |
| 2026-05-04 15:23 | 25.69536 | 45.93415 | 37864 ft | 462 kts | 308° |
| 2026-05-04 15:24 | 25.78919 | 45.83687 | 37870 ft | 461 kts | 308° |
| 2026-05-04 15:25 | 25.83602 | 45.78823 | 37870 ft | 461 kts | 308° |
| 2026-05-04 15:26 | 25.90594 | 45.71555 | 37876 ft | 460 kts | 308° |
| 2026-05-04 15:26 | 25.97613 | 45.64253 | 37884 ft | 460 kts | 308° |
| 2026-05-04 15:27 | 26.04622 | 45.56945 | 37879 ft | 460 kts | 308° |
| 2026-05-04 15:28 | 26.11634 | 45.49620 | 37890 ft | 461 kts | 308° |
| 2026-05-04 15:29 | 26.18616 | 45.42314 | 37874 ft | 461 kts | 308° |
| 2026-05-04 15:30 | 26.34931 | 45.25144 | 37872 ft | 460 kts | 307° |
| 2026-05-04 15:31 | 26.41893 | 45.17839 | 37885 ft | 459 kts | 307° |
| 2026-05-04 15:32 | 26.53529 | 45.05587 | 37866 ft | 460 kts | 307° |
| 2026-05-04 15:34 | 26.65166 | 44.93309 | 37869 ft | 460 kts | 307° |
| 2026-05-04 15:34 | 26.72127 | 44.85955 | 37869 ft | 460 kts | 307° |
| 2026-05-04 15:35 | 26.79100 | 44.78568 | 37862 ft | 460 kts | 307° |
| 2026-05-04 15:36 | 26.86054 | 44.71159 | 37858 ft | 459 kts | 307° |
| 2026-05-04 15:36 | 26.90649 | 44.66255 | 37874 ft | 459 kts | 307° |
| 2026-05-04 15:37 | 26.95278 | 44.61310 | 37875 ft | 459 kts | 307° |
| 2026-05-04 15:37 | 26.99906 | 44.56362 | 37838 ft | 459 kts | 307° |
| 2026-05-04 15:38 | 27.04526 | 44.51434 | 37842 ft | 459 kts | 307° |
| 2026-05-04 15:38 | 27.09152 | 44.46498 | 37865 ft | 458 kts | 307° |
| 2026-05-04 15:39 | 27.13766 | 44.41565 | 37889 ft | 458 kts | 306° |
| 2026-05-04 15:40 | 27.20690 | 44.34149 | 37858 ft | 459 kts | 306° |
| 2026-05-04 15:40 | 27.25308 | 44.29192 | 37859 ft | 459 kts | 306° |
| 2026-05-04 15:41 | 27.29893 | 44.24264 | 37870 ft | 459 kts | 306° |
| 2026-05-04 15:41 | 27.34520 | 44.19284 | 37884 ft | 460 kts | 306° |
| 2026-05-04 15:42 | 27.39147 | 44.14297 | 37877 ft | 461 kts | 306° |
| 2026-05-04 15:42 | 27.43783 | 44.09297 | 37870 ft | 461 kts | 306° |
| 2026-05-04 15:43 | 27.48418 | 44.04290 | 37874 ft | 461 kts | 306° |
| 2026-05-04 15:43 | 27.53054 | 43.99277 | 37880 ft | 461 kts | 306° |
| 2026-05-04 15:44 | 27.57656 | 43.94295 | 37877 ft | 461 kts | 306° |
| 2026-05-04 15:44 | 27.62281 | 43.89281 | 37883 ft | 460 kts | 306° |
| 2026-05-04 15:45 | 27.66889 | 43.84280 | 37879 ft | 460 kts | 306° |
| 2026-05-04 15:45 | 27.71501 | 43.79265 | 37885 ft | 460 kts | 306° |
| 2026-05-04 15:46 | 27.76104 | 43.74256 | 37871 ft | 459 kts | 306° |
| 2026-05-04 15:46 | 27.80701 | 43.69247 | 37869 ft | 459 kts | 306° |
| 2026-05-04 15:47 | 27.85288 | 43.64235 | 37893 ft | 458 kts | 305° |
| 2026-05-04 15:47 | 27.89643 | 43.59090 | 37896 ft | 454 kts | 303° |
| 2026-05-04 15:48 | 27.93921 | 43.53842 | 37877 ft | 453 kts | 303° |
| 2026-05-04 15:48 | 28.00366 | 43.46006 | 37894 ft | 453 kts | 303° |
| 2026-05-04 15:49 | 28.04675 | 43.40799 | 37943 ft | 453 kts | 303° |
| 2026-05-04 15:49 | 28.08985 | 43.35593 | 37894 ft | 452 kts | 303° |
| 2026-05-04 15:50 | 28.13266 | 43.30416 | 37884 ft | 449 kts | 303° |
| 2026-05-04 15:50 | 28.17530 | 43.25249 | 37890 ft | 447 kts | 303° |
| 2026-05-04 15:51 | 28.21744 | 43.20134 | 37902 ft | 446 kts | 303° |
| 2026-05-04 15:51 | 28.25971 | 43.14998 | 37895 ft | 444 kts | 303° |
| 2026-05-04 15:52 | 28.30176 | 43.09882 | 37896 ft | 442 kts | 303° |
| 2026-05-04 15:52 | 28.34368 | 43.04775 | 37893 ft | 442 kts | 303° |
| 2026-05-04 15:53 | 28.38556 | 42.99666 | 37899 ft | 441 kts | 303° |
| 2026-05-04 15:53 | 28.42714 | 42.94588 | 37890 ft | 441 kts | 303° |
| 2026-05-04 15:54 | 28.46895 | 42.89475 | 37909 ft | 442 kts | 303° |
| 2026-05-04 15:54 | 28.51085 | 42.84345 | 37891 ft | 443 kts | 303° |
| 2026-05-04 15:55 | 28.55277 | 42.79207 | 37876 ft | 443 kts | 303° |
| 2026-05-04 15:55 | 28.59473 | 42.74057 | 37882 ft | 443 kts | 303° |
| 2026-05-04 15:56 | 28.63666 | 42.68907 | 37881 ft | 443 kts | 303° |
| 2026-05-04 15:56 | 28.67853 | 42.63749 | 37880 ft | 443 kts | 303° |
| 2026-05-04 15:57 | 28.72040 | 42.58576 | 37866 ft | 444 kts | 302° |
| 2026-05-04 15:57 | 28.76224 | 42.53400 | 37873 ft | 444 kts | 302° |
| 2026-05-04 15:58 | 28.80385 | 42.48247 | 37869 ft | 444 kts | 302° |
| 2026-05-04 15:58 | 28.84569 | 42.43060 | 37868 ft | 444 kts | 302° |
| 2026-05-04 15:59 | 28.88757 | 42.37860 | 37881 ft | 445 kts | 302° |
| 2026-05-04 15:59 | 28.92954 | 42.32643 | 37858 ft | 445 kts | 302° |
| 2026-05-04 16:00 | 28.97112 | 42.27466 | 37852 ft | 444 kts | 302° |
| 2026-05-04 16:00 | 29.01287 | 42.22263 | 37862 ft | 444 kts | 302° |
| 2026-05-04 16:01 | 29.05460 | 42.17057 | 37862 ft | 444 kts | 302° |
| 2026-05-04 16:01 | 29.09635 | 42.11847 | 37856 ft | 444 kts | 302° |
| 2026-05-04 16:02 | 29.13802 | 42.06643 | 37850 ft | 443 kts | 302° |
| 2026-05-04 16:03 | 29.20037 | 41.98840 | 37857 ft | 443 kts | 302° |
| 2026-05-04 16:03 | 29.24166 | 41.93662 | 37870 ft | 443 kts | 301° |
| 2026-05-04 16:04 | 29.28330 | 41.88435 | 37846 ft | 443 kts | 301° |
| 2026-05-04 16:04 | 29.34558 | 41.80604 | 37858 ft | 443 kts | 301° |
| 2026-05-04 16:05 | 29.38717 | 41.75366 | 37882 ft | 444 kts | 301° |
| 2026-05-04 16:06 | 29.44960 | 41.67489 | 37869 ft | 444 kts | 301° |
| 2026-05-04 16:07 | 29.53245 | 41.57015 | 37871 ft | 444 kts | 301° |
| 2026-05-04 16:08 | 29.61536 | 41.46503 | 37876 ft | 443 kts | 301° |
| 2026-05-04 16:09 | 29.71182 | 41.34238 | 37944 ft | 443 kts | 301° |
| 2026-05-04 16:10 | 29.80211 | 41.24273 | 37898 ft | 454 kts | 307° |
| 2026-05-04 16:11 | 29.89649 | 41.14659 | 37911 ft | 454 kts | 307° |
| 2026-05-04 16:12 | 30.03792 | 41.00095 | 37910 ft | 455 kts | 307° |
| 2026-05-04 16:13 | 30.13200 | 40.90376 | 37959 ft | 455 kts | 307° |
| 2026-05-04 16:14 | 30.22607 | 40.80636 | 37927 ft | 452 kts | 306° |
| 2026-05-04 16:16 | 30.34241 | 40.68546 | 37936 ft | 449 kts | 306° |
| 2026-05-04 16:17 | 30.45932 | 40.56486 | 37937 ft | 451 kts | 307° |
| 2026-05-04 16:18 | 30.55339 | 40.46866 | 37992 ft | 450 kts | 307° |
| 2026-05-04 16:19 | 30.67038 | 40.34838 | 37952 ft | 450 kts | 306° |
| 2026-05-04 16:20 | 30.78720 | 40.22785 | 37994 ft | 449 kts | 307° |
| 2026-05-04 16:22 | 30.90355 | 40.10743 | 37969 ft | 446 kts | 307° |
| 2026-05-04 16:23 | 31.04193 | 39.96360 | 37968 ft | 445 kts | 307° |
| 2026-05-04 16:25 | 31.18058 | 39.81893 | 37980 ft | 447 kts | 307° |
| 2026-05-04 16:26 | 31.34242 | 39.64932 | 37979 ft | 447 kts | 307° |
| 2026-05-04 16:28 | 31.45804 | 39.52761 | 37976 ft | 447 kts | 307° |
| 2026-05-04 16:29 | 31.61956 | 39.35634 | 37978 ft | 447 kts | 307° |
| 2026-05-04 16:31 | 31.73473 | 39.23371 | 37980 ft | 448 kts | 307° |
| 2026-05-04 16:31 | 31.80696 | 39.16266 | 38011 ft | 461 kts | 315° |
| 2026-05-04 16:32 | 31.89360 | 39.10804 | 38006 ft | 475 kts | 322° |
| 2026-05-04 16:33 | 32.01132 | 39.03918 | 37967 ft | 470 kts | 321° |
| 2026-05-04 16:34 | 32.09891 | 38.98747 | 37994 ft | 469 kts | 322° |
| 2026-05-04 16:35 | 32.27332 | 38.88456 | 38007 ft | 468 kts | 322° |
| 2026-05-04 16:36 | 32.36081 | 38.83272 | 38000 ft | 469 kts | 322° |
| 2026-05-04 16:37 | 32.44856 | 38.78062 | 37951 ft | 470 kts | 322° |
| 2026-05-04 16:38 | 32.56563 | 38.71093 | 37958 ft | 471 kts | 322° |
| 2026-05-04 16:39 | 32.71204 | 38.62361 | 37958 ft | 473 kts | 322° |
| 2026-05-04 16:40 | 32.82964 | 38.55329 | 37952 ft | 472 kts | 322° |
| 2026-05-04 16:41 | 32.97632 | 38.46523 | 37957 ft | 471 kts | 322° |
| 2026-05-04 16:43 | 33.12207 | 38.37743 | 37949 ft | 469 kts | 322° |
| 2026-05-04 16:43 | 33.20927 | 38.32432 | 37963 ft | 469 kts | 322° |
| 2026-05-04 16:45 | 33.38384 | 38.21765 | 37950 ft | 469 kts | 322° |
| 2026-05-04 16:46 | 33.52926 | 38.12889 | 37953 ft | 472 kts | 322° |
| 2026-05-04 16:47 | 33.64643 | 38.05779 | 37944 ft | 471 kts | 322° |
| 2026-05-04 16:48 | 33.76349 | 37.98638 | 37928 ft | 472 kts | 322° |
| 2026-05-04 16:49 | 33.87317 | 37.90561 | 37932 ft | 446 kts | 305° |
| 2026-05-04 16:50 | 33.91066 | 37.84843 | 37927 ft | 428 kts | 293° |
| 2026-05-04 16:50 | 33.94200 | 37.78737 | 37918 ft | 428 kts | 293° |
| 2026-05-04 16:51 | 33.98911 | 37.69610 | 37941 ft | 430 kts | 293° |
| 2026-05-04 16:52 | 34.05288 | 37.57352 | 37915 ft | 431 kts | 294° |
| 2026-05-04 16:53 | 34.10068 | 37.48144 | 37920 ft | 431 kts | 293° |
| 2026-05-04 16:54 | 34.16457 | 37.35791 | 37909 ft | 435 kts | 294° |
| 2026-05-04 16:55 | 34.23351 | 37.23707 | 37910 ft | 449 kts | 304° |
| 2026-05-04 16:55 | 34.27701 | 37.18237 | 37908 ft | 451 kts | 306° |
| 2026-05-04 16:56 | 34.37863 | 37.05447 | 37900 ft | 452 kts | 305° |
| 2026-05-04 16:57 | 34.44370 | 36.97177 | 37936 ft | 452 kts | 305° |
| 2026-05-04 16:58 | 34.53014 | 36.86159 | 37904 ft | 449 kts | 305° |
| 2026-05-04 17:00 | 34.65851 | 36.69730 | 37911 ft | 447 kts | 305° |
| 2026-05-04 17:01 | 34.76524 | 36.56006 | 37903 ft | 447 kts | 305° |
| 2026-05-04 17:02 | 34.85060 | 36.44980 | 37906 ft | 448 kts | 306° |
| 2026-05-04 17:03 | 34.91448 | 36.36706 | 37933 ft | 450 kts | 306° |
| 2026-05-04 17:03 | 34.97900 | 36.28327 | 37919 ft | 453 kts | 306° |
| 2026-05-04 17:04 | 35.06559 | 36.17055 | 37899 ft | 456 kts | 307° |
| 2026-05-04 17:05 | 35.15192 | 36.05774 | 37926 ft | 456 kts | 307° |
| 2026-05-04 17:06 | 35.20935 | 35.96777 | 37921 ft | 436 kts | 285° |
| 2026-05-04 17:07 | 35.21924 | 35.89576 | 37897 ft | 427 kts | 265° |
| 2026-05-04 17:07 | 35.21685 | 35.87200 | 37919 ft | 425 kts | 258° |
| 2026-05-04 17:07 | 35.20331 | 35.78895 | 37911 ft | 427 kts | 259° |
| 2026-05-04 17:08 | 35.20077 | 35.75323 | 37941 ft | 429 kts | 270° |
| 2026-05-04 17:08 | 35.21090 | 35.68082 | 37914 ft | 438 kts | 283° |
| 2026-05-04 17:09 | 35.23673 | 35.61247 | 37908 ft | 446 kts | 294° |
| 2026-05-04 17:09 | 35.26662 | 35.54565 | 37895 ft | 448 kts | 294° |
| 2026-05-04 17:10 | 35.34045 | 35.37709 | 37884 ft | 449 kts | 293° |
| 2026-05-04 17:11 | 35.36962 | 35.30941 | 37880 ft | 448 kts | 293° |
| 2026-05-04 17:12 | 35.41309 | 35.20829 | 37890 ft | 447 kts | 293° |
| 2026-05-04 17:13 | 35.48512 | 35.04012 | 37871 ft | 445 kts | 293° |
| 2026-05-04 17:14 | 35.54240 | 34.90579 | 37883 ft | 446 kts | 293° |
| 2026-05-04 17:15 | 35.58546 | 34.80445 | 37859 ft | 447 kts | 293° |
| 2026-05-04 17:16 | 35.64302 | 34.66850 | 37866 ft | 448 kts | 294° |
| 2026-05-04 17:17 | 35.70040 | 34.53243 | 37858 ft | 450 kts | 294° |
| 2026-05-04 17:18 | 35.75798 | 34.39531 | 37851 ft | 451 kts | 294° |
| 2026-05-04 17:19 | 35.81553 | 34.25769 | 37852 ft | 452 kts | 294° |
| 2026-05-04 17:20 | 35.87284 | 34.12006 | 37848 ft | 453 kts | 294° |
| 2026-05-04 17:20 | 35.92349 | 34.02171 | 37850 ft | 460 kts | 310° |
| 2026-05-04 17:21 | 35.97295 | 33.97085 | 37843 ft | 468 kts | 323° |
| 2026-05-04 17:21 | 36.02883 | 33.92934 | 37854 ft | 469 kts | 325° |
| 2026-05-04 17:22 | 36.08450 | 33.88822 | 37837 ft | 468 kts | 324° |
| 2026-05-04 17:23 | 36.19525 | 33.80416 | 37847 ft | 466 kts | 324° |
| 2026-05-04 17:24 | 36.27808 | 33.74100 | 37836 ft | 466 kts | 324° |
| 2026-05-04 17:25 | 36.38856 | 33.65686 | 37837 ft | 465 kts | 324° |
| 2026-05-04 17:26 | 36.49838 | 33.57290 | 37867 ft | 466 kts | 325° |
| 2026-05-04 17:27 | 36.63681 | 33.46663 | 37878 ft | 469 kts | 325° |
| 2026-05-04 17:28 | 36.74809 | 33.38088 | 37888 ft | 471 kts | 325° |
| 2026-05-04 17:29 | 36.90491 | 33.23674 | 37897 ft | 465 kts | 310° |
| 2026-05-04 17:31 | 37.01382 | 33.08700 | 37911 ft | 464 kts | 311° |
| 2026-05-04 17:32 | 37.12244 | 32.93840 | 37921 ft | 463 kts | 311° |
| 2026-05-04 17:33 | 37.20923 | 32.81926 | 37926 ft | 462 kts | 311° |
| 2026-05-04 17:34 | 37.29551 | 32.70037 | 37920 ft | 462 kts | 311° |
| 2026-05-04 17:35 | 37.40371 | 32.55066 | 37923 ft | 462 kts | 311° |
| 2026-05-04 17:36 | 37.44694 | 32.49064 | 37930 ft | 463 kts | 311° |
| 2026-05-04 17:36 | 37.48998 | 32.43078 | 37927 ft | 464 kts | 311° |
| 2026-05-04 17:37 | 37.53331 | 32.37042 | 37929 ft | 465 kts | 311° |
| 2026-05-04 17:37 | 37.57670 | 32.30984 | 37924 ft | 465 kts | 311° |
| 2026-05-04 17:38 | 37.62006 | 32.24920 | 37930 ft | 466 kts | 311° |
| 2026-05-04 17:38 | 37.66340 | 32.18846 | 37932 ft | 466 kts | 311° |
| 2026-05-04 17:39 | 37.72848 | 32.09705 | 37947 ft | 466 kts | 311° |
| 2026-05-04 17:39 | 37.77145 | 32.03655 | 37952 ft | 465 kts | 311° |
| 2026-05-04 17:40 | 37.81462 | 31.97566 | 37955 ft | 465 kts | 311° |
| 2026-05-04 17:40 | 37.85780 | 31.91464 | 37952 ft | 465 kts | 311° |
| 2026-05-04 17:41 | 37.90088 | 31.85364 | 37951 ft | 464 kts | 311° |
| 2026-05-04 17:41 | 37.94393 | 31.79256 | 37953 ft | 464 kts | 311° |
| 2026-05-04 17:42 | 37.98660 | 31.73191 | 37954 ft | 463 kts | 311° |
| 2026-05-04 17:42 | 38.02942 | 31.67093 | 37956 ft | 463 kts | 311° |
| 2026-05-04 17:43 | 38.07218 | 31.60993 | 37958 ft | 462 kts | 311° |
| 2026-05-04 17:43 | 38.11493 | 31.54882 | 37974 ft | 462 kts | 311° |
| 2026-05-04 17:44 | 38.15758 | 31.48772 | 37972 ft | 462 kts | 311° |
| 2026-05-04 17:44 | 38.20021 | 31.42653 | 37970 ft | 462 kts | 311° |
| 2026-05-04 17:45 | 38.23557 | 31.37568 | 37986 ft | 461 kts | 311° |
| 2026-05-04 17:45 | 38.28502 | 31.30443 | 37986 ft | 461 kts | 311° |
| 2026-05-04 17:46 | 38.32059 | 31.25309 | 37994 ft | 461 kts | 311° |
| 2026-05-04 17:46 | 38.36271 | 31.19216 | 37984 ft | 461 kts | 311° |
| 2026-05-04 17:47 | 38.40507 | 31.13079 | 38001 ft | 461 kts | 311° |
| 2026-05-04 17:47 | 38.44756 | 31.06924 | 38008 ft | 461 kts | 313° |
| 2026-05-04 17:48 | 38.49719 | 31.01762 | 38013 ft | 461 kts | 327° |
| 2026-05-04 17:48 | 38.55464 | 30.98231 | 38028 ft | 463 kts | 338° |
| 2026-05-04 17:49 | 38.61522 | 30.95395 | 38011 ft | 464 kts | 339° |
| 2026-05-04 17:49 | 38.67591 | 30.92562 | 38014 ft | 464 kts | 338° |
| 2026-05-04 17:50 | 38.73646 | 30.89674 | 38023 ft | 464 kts | 339° |
| 2026-05-04 17:50 | 38.79704 | 30.86752 | 38024 ft | 465 kts | 338° |
| 2026-05-04 17:51 | 38.85763 | 30.83819 | 38021 ft | 465 kts | 338° |
| 2026-05-04 17:51 | 38.91820 | 30.80883 | 38036 ft | 465 kts | 338° |
| 2026-05-04 17:52 | 38.97885 | 30.77939 | 38032 ft | 465 kts | 339° |
| 2026-05-04 17:52 | 39.03910 | 30.75010 | 38024 ft | 465 kts | 339° |
| 2026-05-04 17:53 | 39.09966 | 30.72061 | 38033 ft | 465 kts | 339° |
| 2026-05-04 17:53 | 39.16026 | 30.69104 | 38039 ft | 465 kts | 339° |
| 2026-05-04 17:54 | 39.22073 | 30.66148 | 38032 ft | 465 kts | 339° |
| 2026-05-04 17:54 | 39.28080 | 30.63206 | 38036 ft | 464 kts | 339° |
| 2026-05-04 17:55 | 39.34120 | 30.60242 | 38046 ft | 464 kts | 339° |
| 2026-05-04 17:55 | 39.40153 | 30.57275 | 38041 ft | 463 kts | 339° |
| 2026-05-04 17:56 | 39.46179 | 30.54307 | 38042 ft | 463 kts | 339° |
| 2026-05-04 17:56 | 39.52201 | 30.51336 | 38045 ft | 463 kts | 339° |
| 2026-05-04 17:57 | 39.58137 | 30.48195 | 38052 ft | 463 kts | 336° |
| 2026-05-04 17:57 | 39.64008 | 30.44762 | 38052 ft | 463 kts | 336° |
| 2026-05-04 17:58 | 39.69870 | 30.41297 | 38003 ft | 463 kts | 336° |
| 2026-05-04 17:58 | 39.75748 | 30.37845 | 37998 ft | 463 kts | 336° |
| 2026-05-04 17:59 | 39.81620 | 30.34407 | 38005 ft | 463 kts | 336° |
| 2026-05-04 18:00 | 39.90435 | 30.29242 | 38006 ft | 464 kts | 336° |
| 2026-05-04 18:00 | 39.96328 | 30.25780 | 38041 ft | 464 kts | 336° |
| 2026-05-04 18:01 | 40.02225 | 30.22308 | 38052 ft | 465 kts | 336° |
| 2026-05-04 18:01 | 40.08100 | 30.18842 | 38057 ft | 466 kts | 336° |
| 2026-05-04 18:02 | 40.16982 | 30.13590 | 38067 ft | 468 kts | 336° |
| 2026-05-04 18:02 | 40.22919 | 30.10072 | 38058 ft | 468 kts | 336° |
| 2026-05-04 18:03 | 40.28846 | 30.06552 | 38056 ft | 466 kts | 336° |
| 2026-05-04 18:03 | 40.34710 | 30.03061 | 38066 ft | 464 kts | 337° |
| 2026-05-04 18:04 | 40.40612 | 29.99543 | 38050 ft | 462 kts | 337° |
| 2026-05-04 18:05 | 40.49307 | 29.94347 | 38050 ft | 458 kts | 337° |
| 2026-05-04 18:05 | 40.55108 | 29.90873 | 38048 ft | 457 kts | 337° |
| 2026-05-04 18:06 | 40.63775 | 29.85669 | 38051 ft | 456 kts | 337° |
| 2026-05-04 18:06 | 40.69561 | 29.82186 | 38031 ft | 456 kts | 337° |
| 2026-05-04 18:07 | 40.75329 | 29.78708 | 38045 ft | 456 kts | 337° |
| 2026-05-04 18:07 | 40.81093 | 29.75225 | 38042 ft | 455 kts | 337° |
| 2026-05-04 18:08 | 40.86819 | 29.71759 | 38042 ft | 456 kts | 337° |
| 2026-05-04 18:08 | 40.92585 | 29.68262 | 38046 ft | 456 kts | 337° |
| 2026-05-04 18:09 | 41.04125 | 29.61242 | 38035 ft | 457 kts | 337° |
| 2026-05-04 18:10 | 41.09903 | 29.57717 | 38021 ft | 456 kts | 337° |
| 2026-05-04 18:10 | 41.15671 | 29.54191 | 38028 ft | 455 kts | 337° |
| 2026-05-04 18:11 | 41.21496 | 29.50925 | 38023 ft | 453 kts | 343° |
| 2026-05-04 18:11 | 41.27552 | 29.48623 | 38020 ft | 453 kts | 346° |
| 2026-05-04 18:12 | 41.33586 | 29.46393 | 38016 ft | 453 kts | 345° |
| 2026-05-04 18:12 | 41.39663 | 29.44111 | 38021 ft | 454 kts | 345° |
| 2026-05-04 18:13 | 41.45753 | 29.41797 | 38019 ft | 455 kts | 345° |
| 2026-05-04 18:14 | 41.54892 | 29.38309 | 38023 ft | 456 kts | 345° |
| 2026-05-04 18:14 | 41.60959 | 29.35988 | 38018 ft | 456 kts | 345° |
| 2026-05-04 18:15 | 41.73181 | 29.31300 | 38029 ft | 457 kts | 345° |
| 2026-05-04 18:16 | 41.79298 | 29.28947 | 38024 ft | 456 kts | 345° |
| 2026-05-04 18:16 | 41.85402 | 29.26594 | 38022 ft | 456 kts | 345° |
| 2026-05-04 18:17 | 41.94549 | 29.23060 | 38031 ft | 456 kts | 345° |
| 2026-05-04 18:18 | 42.03645 | 29.19535 | 38031 ft | 455 kts | 345° |
| 2026-05-04 18:18 | 42.09733 | 29.17170 | 38021 ft | 455 kts | 345° |
| 2026-05-04 18:19 | 42.18554 | 29.12434 | 38042 ft | 458 kts | 332° |
| 2026-05-04 18:19 | 42.23805 | 29.07607 | 38043 ft | 460 kts | 325° |
| 2026-05-04 18:20 | 42.28889 | 29.02318 | 38032 ft | 461 kts | 324° |
| 2026-05-04 18:20 | 42.33975 | 28.97005 | 38032 ft | 461 kts | 324° |
| 2026-05-04 18:21 | 42.39085 | 28.91745 | 38036 ft | 462 kts | 325° |
| 2026-05-04 18:21 | 42.44229 | 28.86513 | 38041 ft | 462 kts | 325° |
| 2026-05-04 18:22 | 42.49334 | 28.81308 | 38038 ft | 462 kts | 325° |
| 2026-05-04 18:22 | 42.54470 | 28.76050 | 38043 ft | 463 kts | 325° |
| 2026-05-04 18:23 | 42.59603 | 28.70776 | 38044 ft | 463 kts | 325° |
| 2026-05-04 18:23 | 42.64732 | 28.65494 | 38043 ft | 463 kts | 325° |
| 2026-05-04 18:24 | 42.69859 | 28.60205 | 38040 ft | 462 kts | 324° |
| 2026-05-04 18:24 | 42.74985 | 28.54904 | 38142 ft | 465 kts | 324° |
| 2026-05-04 18:25 | 42.77561 | 28.52236 | 38504 ft | 465 kts | 324° |
| 2026-05-04 18:25 | 42.80128 | 28.49575 | 38885 ft | 463 kts | 324° |
| 2026-05-04 18:25 | 42.82684 | 28.46922 | 39207 ft | 461 kts | 324° |
| 2026-05-04 18:25 | 42.85236 | 28.44270 | 39485 ft | 462 kts | 324° |
| 2026-05-04 18:26 | 42.87795 | 28.41609 | 39722 ft | 462 kts | 324° |
| 2026-05-04 18:26 | 42.90348 | 28.38951 | 39942 ft | 462 kts | 324° |
| 2026-05-04 18:26 | 42.95460 | 28.33621 | 40037 ft | 466 kts | 324° |
| 2026-05-04 18:27 | 43.00634 | 28.28213 | 40051 ft | 464 kts | 324° |
| 2026-05-04 18:27 | 43.05710 | 28.22896 | 40054 ft | 462 kts | 324° |
| 2026-05-04 18:28 | 43.10796 | 28.17557 | 40060 ft | 460 kts | 324° |
| 2026-05-04 18:28 | 43.15867 | 28.12223 | 40057 ft | 459 kts | 324° |
| 2026-05-04 18:29 | 43.20935 | 28.06881 | 40054 ft | 459 kts | 324° |
| 2026-05-04 18:29 | 43.26005 | 28.01525 | 40044 ft | 459 kts | 323° |
| 2026-05-04 18:30 | 43.33606 | 27.93474 | 40052 ft | 460 kts | 323° |
| 2026-05-04 18:31 | 43.38646 | 27.88120 | 40053 ft | 461 kts | 323° |
| 2026-05-04 18:31 | 43.43719 | 27.82720 | 40041 ft | 461 kts | 323° |
| 2026-05-04 18:32 | 43.48797 | 27.77304 | 40058 ft | 461 kts | 323° |
| 2026-05-04 18:32 | 43.53869 | 27.71880 | 40062 ft | 462 kts | 323° |
| 2026-05-04 18:33 | 43.58943 | 27.66444 | 40064 ft | 462 kts | 323° |
| 2026-05-04 18:33 | 43.64019 | 27.60994 | 40054 ft | 462 kts | 323° |
| 2026-05-04 18:34 | 43.69086 | 27.55541 | 40057 ft | 462 kts | 323° |
| 2026-05-04 18:34 | 43.74124 | 27.50108 | 40056 ft | 462 kts | 323° |
| 2026-05-04 18:35 | 43.79186 | 27.44636 | 40058 ft | 462 kts | 323° |
| 2026-05-04 18:35 | 43.83432 | 27.40037 | 40045 ft | 462 kts | 323° |
| 2026-05-04 18:36 | 43.88454 | 27.34587 | 40040 ft | 462 kts | 322° |
| 2026-05-04 18:36 | 43.93514 | 27.29083 | 40050 ft | 462 kts | 322° |
| 2026-05-04 18:37 | 43.98570 | 27.23571 | 40057 ft | 461 kts | 322° |
| 2026-05-04 18:37 | 44.03623 | 27.18051 | 40052 ft | 461 kts | 322° |
| 2026-05-04 18:38 | 44.08638 | 27.12559 | 40049 ft | 461 kts | 322° |
| 2026-05-04 18:38 | 44.13680 | 27.07026 | 40053 ft | 461 kts | 322° |
| 2026-05-04 18:39 | 44.18727 | 27.01475 | 40051 ft | 462 kts | 322° |
| 2026-05-04 18:39 | 44.23769 | 26.95916 | 40028 ft | 461 kts | 322° |
| 2026-05-04 18:40 | 44.28768 | 26.90394 | 40045 ft | 461 kts | 322° |
| 2026-05-04 18:40 | 44.33803 | 26.84818 | 40048 ft | 461 kts | 322° |
| 2026-05-04 18:41 | 44.38830 | 26.79238 | 40039 ft | 461 kts | 322° |
| 2026-05-04 18:41 | 44.43861 | 26.73643 | 40048 ft | 461 kts | 322° |
| 2026-05-04 18:42 | 44.48883 | 26.68044 | 40038 ft | 461 kts | 322° |
| 2026-05-04 18:42 | 44.53902 | 26.62436 | 40049 ft | 461 kts | 322° |
| 2026-05-04 18:43 | 44.58899 | 26.56840 | 40047 ft | 461 kts | 322° |
| 2026-05-04 18:43 | 44.63918 | 26.51206 | 40048 ft | 461 kts | 322° |
| 2026-05-04 18:44 | 44.68934 | 26.45563 | 40044 ft | 461 kts | 322° |
| 2026-05-04 18:44 | 44.73942 | 26.39916 | 40049 ft | 461 kts | 322° |
| 2026-05-04 18:45 | 44.78915 | 26.34295 | 40048 ft | 461 kts | 322° |
| 2026-05-04 18:45 | 44.83919 | 26.28627 | 40045 ft | 461 kts | 322° |
| 2026-05-04 18:46 | 44.88920 | 26.22949 | 40046 ft | 462 kts | 322° |
| 2026-05-04 18:46 | 44.93931 | 26.17246 | 40056 ft | 462 kts | 322° |
| 2026-05-04 18:47 | 44.98933 | 26.11542 | 40051 ft | 462 kts | 322° |
| 2026-05-04 18:47 | 45.03935 | 26.05822 | 40061 ft | 463 kts | 322° |
| 2026-05-04 18:48 | 45.08948 | 26.00078 | 40072 ft | 464 kts | 322° |
| 2026-05-04 18:48 | 45.13960 | 25.94322 | 40072 ft | 464 kts | 321° |
| 2026-05-04 18:49 | 45.18947 | 25.88580 | 40080 ft | 465 kts | 321° |
| 2026-05-04 18:49 | 45.23960 | 25.82795 | 40092 ft | 464 kts | 322° |
| 2026-05-04 18:50 | 45.28958 | 25.77014 | 40087 ft | 462 kts | 321° |
| 2026-05-04 18:50 | 45.33935 | 25.71245 | 40094 ft | 461 kts | 322° |
| 2026-05-04 18:51 | 45.38899 | 25.65474 | 40103 ft | 460 kts | 321° |
| 2026-05-04 18:51 | 45.43826 | 25.59735 | 40092 ft | 460 kts | 321° |
| 2026-05-04 18:52 | 45.48783 | 25.53949 | 40091 ft | 461 kts | 321° |
| 2026-05-04 18:52 | 45.53745 | 25.48141 | 40094 ft | 462 kts | 321° |
| 2026-05-04 18:53 | 45.58718 | 25.42307 | 40084 ft | 463 kts | 321° |
| 2026-05-04 18:53 | 45.63695 | 25.36456 | 40092 ft | 464 kts | 321° |
| 2026-05-04 18:54 | 45.68677 | 25.30583 | 40083 ft | 464 kts | 321° |
| 2026-05-04 18:54 | 45.73664 | 25.24692 | 40080 ft | 465 kts | 321° |
| 2026-05-04 18:55 | 45.78625 | 25.18815 | 40087 ft | 465 kts | 321° |
| 2026-05-04 18:55 | 45.86111 | 25.09923 | 40074 ft | 466 kts | 321° |
| 2026-05-04 18:56 | 45.91099 | 25.03981 | 40075 ft | 466 kts | 321° |
| 2026-05-04 18:56 | 45.96096 | 24.98012 | 40064 ft | 466 kts | 321° |
| 2026-05-04 18:57 | 46.01076 | 24.92050 | 40072 ft | 466 kts | 321° |
| 2026-05-04 18:57 | 46.06051 | 24.86080 | 40068 ft | 465 kts | 321° |
| 2026-05-04 18:58 | 46.11013 | 24.80110 | 40073 ft | 465 kts | 321° |
| 2026-05-04 18:58 | 46.15981 | 24.74118 | 40066 ft | 465 kts | 321° |
| 2026-05-04 18:59 | 46.20941 | 24.68123 | 40069 ft | 465 kts | 321° |
| 2026-05-04 18:59 | 46.25871 | 24.62148 | 40061 ft | 464 kts | 321° |
| 2026-05-04 19:00 | 46.30813 | 24.56144 | 40064 ft | 464 kts | 321° |
| 2026-05-04 19:00 | 46.35739 | 24.50145 | 40065 ft | 463 kts | 321° |
| 2026-05-04 19:01 | 46.40665 | 24.44133 | 40055 ft | 463 kts | 321° |
| 2026-05-04 19:01 | 46.45592 | 24.38102 | 40051 ft | 462 kts | 321° |
| 2026-05-04 19:02 | 46.50501 | 24.32080 | 40063 ft | 462 kts | 321° |
| 2026-05-04 19:02 | 46.55402 | 24.26053 | 40067 ft | 461 kts | 321° |
| 2026-05-04 19:03 | 46.60295 | 24.20021 | 40069 ft | 461 kts | 321° |
| 2026-05-04 19:03 | 46.65186 | 24.13978 | 40070 ft | 461 kts | 320° |
| 2026-05-04 19:04 | 46.70035 | 24.07970 | 40068 ft | 461 kts | 320° |
| 2026-05-04 19:04 | 46.74919 | 24.01906 | 40076 ft | 461 kts | 320° |
| 2026-05-04 19:05 | 46.79813 | 23.95813 | 40075 ft | 462 kts | 320° |
| 2026-05-04 19:05 | 46.84704 | 23.89709 | 40068 ft | 462 kts | 320° |
| 2026-05-04 19:06 | 46.89557 | 23.83636 | 40076 ft | 462 kts | 320° |
| 2026-05-04 19:06 | 46.94450 | 23.77498 | 40074 ft | 463 kts | 320° |
| 2026-05-04 19:07 | 46.99337 | 23.71354 | 40079 ft | 463 kts | 320° |
| 2026-05-04 19:07 | 47.04228 | 23.65190 | 40084 ft | 463 kts | 320° |
| 2026-05-04 19:08 | 47.09118 | 23.59010 | 40078 ft | 463 kts | 320° |
| 2026-05-04 19:08 | 47.13973 | 23.52859 | 40085 ft | 464 kts | 320° |
| 2026-05-04 19:09 | 47.18853 | 23.46660 | 40077 ft | 464 kts | 320° |
| 2026-05-04 19:09 | 47.23742 | 23.40436 | 40079 ft | 464 kts | 320° |
| 2026-05-04 19:10 | 47.28610 | 23.34222 | 40072 ft | 464 kts | 320° |
| 2026-05-04 19:10 | 47.33484 | 23.27984 | 40086 ft | 463 kts | 320° |
| 2026-05-04 19:11 | 47.38355 | 23.21735 | 40081 ft | 464 kts | 320° |
| 2026-05-04 19:11 | 47.43214 | 23.15484 | 40076 ft | 464 kts | 319° |
| 2026-05-04 19:12 | 47.50478 | 23.06111 | 40086 ft | 464 kts | 319° |
| 2026-05-04 19:13 | 47.55344 | 22.99812 | 40085 ft | 463 kts | 319° |
| 2026-05-04 19:13 | 47.60199 | 22.93510 | 40072 ft | 463 kts | 319° |
| 2026-05-04 19:14 | 47.65047 | 22.87203 | 40095 ft | 463 kts | 319° |
| 2026-05-04 19:14 | 47.69885 | 22.80893 | 40068 ft | 463 kts | 319° |
| 2026-05-04 19:15 | 47.74693 | 22.74603 | 40067 ft | 462 kts | 319° |
| 2026-05-04 19:15 | 47.79521 | 22.68273 | 40065 ft | 462 kts | 319° |
| 2026-05-04 19:16 | 47.84334 | 22.61945 | 40058 ft | 461 kts | 319° |
| 2026-05-04 19:16 | 47.89146 | 22.55603 | 40071 ft | 461 kts | 319° |
| 2026-05-04 19:17 | 47.93944 | 22.49263 | 40053 ft | 461 kts | 319° |
| 2026-05-04 19:17 | 47.98743 | 22.42905 | 40057 ft | 460 kts | 319° |
| 2026-05-04 19:18 | 48.03508 | 22.36576 | 40071 ft | 459 kts | 319° |
| 2026-05-04 19:18 | 48.08259 | 22.30248 | 40056 ft | 459 kts | 319° |
| 2026-05-04 19:19 | 48.13024 | 22.23886 | 40046 ft | 459 kts | 319° |
| 2026-05-04 19:19 | 48.17788 | 22.17509 | 40062 ft | 459 kts | 319° |
| 2026-05-04 19:20 | 48.22546 | 22.11122 | 40064 ft | 458 kts | 318° |
| 2026-05-04 19:20 | 48.27299 | 22.04725 | 40068 ft | 458 kts | 318° |
| 2026-05-04 19:21 | 48.31240 | 21.99411 | 40046 ft | 458 kts | 318° |
| 2026-05-04 19:21 | 48.36289 | 21.93591 | 40061 ft | 458 kts | 329° |
| 2026-05-04 19:22 | 48.42024 | 21.89425 | 40056 ft | 459 kts | 339° |
| 2026-05-04 19:22 | 48.48064 | 21.86257 | 40060 ft | 459 kts | 340° |
| 2026-05-04 19:23 | 48.54105 | 21.83115 | 40055 ft | 460 kts | 340° |
| 2026-05-04 19:23 | 48.60106 | 21.79914 | 40056 ft | 460 kts | 340° |
| 2026-05-04 19:24 | 48.66148 | 21.76657 | 40044 ft | 461 kts | 340° |
| 2026-05-04 19:24 | 48.72202 | 21.73390 | 40038 ft | 461 kts | 340° |
| 2026-05-04 19:25 | 48.78169 | 21.69825 | 40057 ft | 461 kts | 336° |
| 2026-05-04 19:25 | 48.84046 | 21.65901 | 40039 ft | 461 kts | 335° |
| 2026-05-04 19:26 | 48.89915 | 21.61943 | 40040 ft | 462 kts | 335° |
| 2026-05-04 19:26 | 48.95796 | 21.58001 | 40043 ft | 462 kts | 336° |
| 2026-05-04 19:27 | 49.01635 | 21.54097 | 40055 ft | 462 kts | 335° |
| 2026-05-04 19:27 | 49.07524 | 21.50156 | 40053 ft | 462 kts | 335° |
| 2026-05-04 19:28 | 49.13417 | 21.46202 | 40032 ft | 463 kts | 335° |
| 2026-05-04 19:28 | 49.19310 | 21.42236 | 40032 ft | 463 kts | 335° |
| 2026-05-04 19:29 | 49.25205 | 21.38258 | 40044 ft | 463 kts | 335° |
| 2026-05-04 19:29 | 49.31101 | 21.34269 | 40026 ft | 463 kts | 335° |
| 2026-05-04 19:30 | 49.36994 | 21.30271 | 40022 ft | 463 kts | 335° |
| 2026-05-04 19:30 | 49.42884 | 21.26265 | 40024 ft | 463 kts | 335° |
| 2026-05-04 19:31 | 49.48625 | 21.21790 | 40010 ft | 461 kts | 327° |
| 2026-05-04 19:31 | 49.53973 | 21.16444 | 40007 ft | 461 kts | 326° |
| 2026-05-04 19:32 | 49.59342 | 21.11000 | 40003 ft | 462 kts | 326° |
| 2026-05-04 19:32 | 49.64722 | 21.05584 | 40012 ft | 462 kts | 326° |
| 2026-05-04 19:33 | 49.70115 | 21.00178 | 40002 ft | 462 kts | 326° |
| 2026-05-04 19:33 | 49.75512 | 20.94766 | 40001 ft | 463 kts | 326° |
| 2026-05-04 19:34 | 49.80917 | 20.89331 | 39987 ft | 463 kts | 326° |
| 2026-05-04 19:34 | 49.86308 | 20.83894 | 39991 ft | 463 kts | 326° |
| 2026-05-04 19:35 | 49.91678 | 20.78463 | 39987 ft | 463 kts | 326° |
| 2026-05-04 19:35 | 49.97073 | 20.72991 | 39981 ft | 463 kts | 326° |
| 2026-05-04 19:36 | 50.02501 | 20.67470 | 39983 ft | 464 kts | 326° |
| 2026-05-04 19:36 | 50.07874 | 20.61992 | 39979 ft | 464 kts | 326° |
| 2026-05-04 19:37 | 50.13269 | 20.56475 | 39979 ft | 464 kts | 326° |
| 2026-05-04 19:37 | 50.18662 | 20.50946 | 39975 ft | 464 kts | 325° |
| 2026-05-04 19:38 | 50.24051 | 20.45404 | 39976 ft | 464 kts | 325° |
| 2026-05-04 19:38 | 50.29439 | 20.39850 | 39971 ft | 464 kts | 325° |
| 2026-05-04 19:39 | 50.34783 | 20.34325 | 39973 ft | 463 kts | 325° |
| 2026-05-04 19:39 | 50.40126 | 20.28785 | 39973 ft | 463 kts | 325° |
| 2026-05-04 19:40 | 50.45504 | 20.23195 | 39972 ft | 463 kts | 325° |
| 2026-05-04 19:40 | 50.50876 | 20.17595 | 39972 ft | 463 kts | 325° |
| 2026-05-04 19:41 | 50.56238 | 20.11990 | 39975 ft | 463 kts | 325° |
| 2026-05-04 19:41 | 50.61605 | 20.06364 | 39968 ft | 463 kts | 325° |
| 2026-05-04 19:42 | 50.66963 | 20.00732 | 39970 ft | 463 kts | 325° |
| 2026-05-04 19:42 | 50.72316 | 19.95090 | 39974 ft | 463 kts | 324° |
| 2026-05-04 19:43 | 50.77668 | 19.89432 | 39964 ft | 462 kts | 324° |
| 2026-05-04 19:43 | 50.83008 | 19.83772 | 39972 ft | 462 kts | 324° |
| 2026-05-04 19:44 | 50.88312 | 19.78134 | 39960 ft | 462 kts | 324° |
| 2026-05-04 19:44 | 50.93640 | 19.72455 | 39961 ft | 461 kts | 324° |
| 2026-05-04 19:45 | 50.98960 | 19.66768 | 39964 ft | 461 kts | 324° |
| 2026-05-04 19:45 | 51.04279 | 19.61066 | 39949 ft | 460 kts | 324° |
| 2026-05-04 19:46 | 51.09581 | 19.55367 | 39961 ft | 460 kts | 324° |
| 2026-05-04 19:46 | 51.14871 | 19.49665 | 39955 ft | 459 kts | 323° |
| 2026-05-04 19:47 | 51.20160 | 19.43947 | 39951 ft | 459 kts | 323° |
| 2026-05-04 19:47 | 51.25441 | 19.38222 | 39948 ft | 459 kts | 323° |
| 2026-05-04 19:48 | 51.30705 | 19.32498 | 39944 ft | 460 kts | 323° |
| 2026-05-04 19:48 | 51.35993 | 19.26733 | 39943 ft | 460 kts | 323° |
| 2026-05-04 19:49 | 51.41285 | 19.20947 | 39945 ft | 460 kts | 323° |
| 2026-05-04 19:49 | 51.46577 | 19.15145 | 39942 ft | 461 kts | 323° |
| 2026-05-04 19:50 | 51.51847 | 19.09349 | 39943 ft | 461 kts | 323° |
| 2026-05-04 19:50 | 51.57144 | 19.03508 | 39943 ft | 462 kts | 323° |
| 2026-05-04 19:51 | 51.62448 | 18.97642 | 39940 ft | 462 kts | 323° |
| 2026-05-04 19:51 | 51.67751 | 18.91760 | 39935 ft | 462 kts | 323° |
| 2026-05-04 19:52 | 51.73050 | 18.85866 | 39948 ft | 462 kts | 323° |
| 2026-05-04 19:52 | 51.78306 | 18.80002 | 39933 ft | 462 kts | 323° |
| 2026-05-04 19:53 | 51.83619 | 18.74058 | 39938 ft | 462 kts | 323° |
| 2026-05-04 19:53 | 51.88870 | 18.68165 | 39935 ft | 462 kts | 323° |
| 2026-05-04 19:54 | 51.94164 | 18.62208 | 39937 ft | 462 kts | 323° |
| 2026-05-04 19:54 | 51.99438 | 18.56255 | 39935 ft | 462 kts | 322° |
| 2026-05-04 19:55 | 52.04705 | 18.50293 | 39938 ft | 462 kts | 322° |
| 2026-05-04 19:55 | 52.09943 | 18.44347 | 39945 ft | 461 kts | 322° |
| 2026-05-04 19:56 | 52.15198 | 18.38364 | 39935 ft | 461 kts | 322° |
| 2026-05-04 19:56 | 52.20454 | 18.32361 | 39939 ft | 461 kts | 322° |
| 2026-05-04 19:57 | 52.25701 | 18.26351 | 39938 ft | 460 kts | 322° |
| 2026-05-04 19:57 | 52.30945 | 18.20328 | 39941 ft | 460 kts | 322° |
| 2026-05-04 19:58 | 52.36139 | 18.14344 | 39946 ft | 460 kts | 322° |
| 2026-05-04 19:58 | 52.41369 | 18.08301 | 39936 ft | 459 kts | 322° |
| 2026-05-04 19:59 | 52.46594 | 18.02245 | 39943 ft | 459 kts | 322° |
| 2026-05-04 19:59 | 52.51784 | 17.96213 | 39942 ft | 459 kts | 322° |
| 2026-05-04 20:00 | 52.56992 | 17.90140 | 39952 ft | 459 kts | 322° |
| 2026-05-04 20:00 | 52.62203 | 17.84048 | 39950 ft | 459 kts | 322° |
| 2026-05-04 20:01 | 52.67410 | 17.77941 | 39957 ft | 460 kts | 321° |
| 2026-05-04 20:01 | 52.72620 | 17.71813 | 39949 ft | 460 kts | 321° |
| 2026-05-04 20:02 | 52.77829 | 17.65668 | 39944 ft | 460 kts | 321° |
| 2026-05-04 20:02 | 52.83040 | 17.59501 | 39951 ft | 460 kts | 321° |
| 2026-05-04 20:03 | 52.88243 | 17.53326 | 39947 ft | 460 kts | 321° |
| 2026-05-04 20:03 | 52.93408 | 17.47177 | 39948 ft | 460 kts | 321° |
| 2026-05-04 20:04 | 52.98607 | 17.40969 | 39962 ft | 460 kts | 321° |
| 2026-05-04 20:04 | 53.03802 | 17.34747 | 39956 ft | 460 kts | 321° |
| 2026-05-04 20:05 | 53.08993 | 17.28510 | 39957 ft | 460 kts | 321° |
| 2026-05-04 20:05 | 53.14168 | 17.22275 | 39958 ft | 459 kts | 321° |
| 2026-05-04 20:06 | 53.19341 | 17.16023 | 39964 ft | 459 kts | 321° |
| 2026-05-04 20:06 | 53.24507 | 17.09760 | 39977 ft | 459 kts | 320° |
| 2026-05-04 20:07 | 53.29669 | 17.03482 | 39971 ft | 459 kts | 320° |
| 2026-05-04 20:07 | 53.34814 | 16.97205 | 39967 ft | 460 kts | 320° |
| 2026-05-04 20:08 | 53.39984 | 16.90880 | 39971 ft | 460 kts | 320° |
| 2026-05-04 20:08 | 53.45159 | 16.84529 | 39972 ft | 461 kts | 320° |
| 2026-05-04 20:09 | 53.50337 | 16.78153 | 39975 ft | 462 kts | 320° |
| 2026-05-04 20:09 | 53.55522 | 16.71751 | 39979 ft | 462 kts | 320° |
| 2026-05-04 20:10 | 53.60700 | 16.65336 | 39995 ft | 463 kts | 320° |
| 2026-05-04 20:10 | 53.65856 | 16.58929 | 39985 ft | 464 kts | 320° |
| 2026-05-04 20:11 | 53.71051 | 16.52453 | 39980 ft | 464 kts | 320° |
| 2026-05-04 20:11 | 53.76244 | 16.45961 | 39982 ft | 464 kts | 320° |
| 2026-05-04 20:12 | 53.81434 | 16.39450 | 39990 ft | 464 kts | 320° |
| 2026-05-04 20:12 | 53.85749 | 16.34022 | 39972 ft | 465 kts | 320° |
| 2026-05-04 20:13 | 53.90942 | 16.27470 | 39992 ft | 465 kts | 320° |
| 2026-05-04 20:13 | 53.96131 | 16.20902 | 39978 ft | 465 kts | 320° |
| 2026-05-04 20:14 | 54.01321 | 16.14312 | 39981 ft | 466 kts | 320° |
| 2026-05-04 20:14 | 54.06510 | 16.07703 | 39980 ft | 466 kts | 320° |
| 2026-05-04 20:15 | 54.11697 | 16.01074 | 39984 ft | 466 kts | 319° |
| 2026-05-04 20:15 | 54.16879 | 15.94432 | 39977 ft | 466 kts | 319° |
| 2026-05-04 20:16 | 54.22067 | 15.87759 | 39995 ft | 466 kts | 319° |
| 2026-05-04 20:16 | 54.27246 | 15.81077 | 39987 ft | 467 kts | 319° |
| 2026-05-04 20:17 | 54.32394 | 15.74413 | 39978 ft | 466 kts | 319° |
| 2026-05-04 20:17 | 54.37569 | 15.67693 | 39972 ft | 466 kts | 319° |
| 2026-05-04 20:18 | 54.42732 | 15.60967 | 39974 ft | 466 kts | 319° |
| 2026-05-04 20:18 | 54.47893 | 15.54221 | 39971 ft | 465 kts | 319° |
| 2026-05-04 20:19 | 54.53044 | 15.47467 | 39976 ft | 465 kts | 319° |
| 2026-05-04 20:19 | 54.58188 | 15.40700 | 39972 ft | 465 kts | 319° |
| 2026-05-04 20:20 | 54.63322 | 15.33923 | 39967 ft | 465 kts | 319° |
| 2026-05-04 20:20 | 54.68452 | 15.27129 | 39971 ft | 464 kts | 319° |
| 2026-05-04 20:20 | 54.71020 | 15.23720 | 39743 ft | 468 kts | 319° |
| 2026-05-04 20:21 | 54.73603 | 15.20280 | 39007 ft | 476 kts | 318° |
| 2026-05-04 20:21 | 54.76216 | 15.16801 | 38214 ft | 474 kts | 318° |
| 2026-05-04 20:21 | 54.81405 | 15.09881 | 36553 ft | 467 kts | 317° |
| 2026-05-04 20:22 | 54.83971 | 15.06450 | 35755 ft | 463 kts | 317° |
| 2026-05-04 20:22 | 54.86521 | 15.03031 | 34906 ft | 461 kts | 317° |
| 2026-05-04 20:22 | 54.89057 | 14.99625 | 33996 ft | 460 kts | 316° |
| 2026-05-04 20:22 | 54.91589 | 14.96217 | 32910 ft | 458 kts | 316° |
| 2026-05-04 20:23 | 54.94096 | 14.92838 | 31882 ft | 455 kts | 315° |
| 2026-05-04 20:23 | 54.96595 | 14.89465 | 30953 ft | 451 kts | 315° |
| 2026-05-04 20:23 | 54.99042 | 14.86165 | 30264 ft | 442 kts | 314° |
| 2026-05-04 20:23 | 55.01447 | 14.82913 | 29488 ft | 434 kts | 314° |
| 2026-05-04 20:24 | 55.03757 | 14.79612 | 28740 ft | 421 kts | 309° |
| 2026-05-04 20:24 | 55.05720 | 14.75953 | 28079 ft | 408 kts | 303° |
| 2026-05-04 20:24 | 55.07416 | 14.72130 | 27423 ft | 398 kts | 300° |
| 2026-05-04 20:24 | 55.08915 | 14.68130 | 26745 ft | 389 kts | 294° |
| 2026-05-04 20:25 | 55.10154 | 14.63982 | 26149 ft | 383 kts | 292° |
| 2026-05-04 20:25 | 55.11347 | 14.59856 | 25507 ft | 379 kts | 292° |
| 2026-05-04 20:25 | 55.12526 | 14.55764 | 24893 ft | 376 kts | 292° |
| 2026-05-04 20:25 | 55.13700 | 14.51694 | 24288 ft | 375 kts | 292° |
| 2026-05-04 20:26 | 55.14882 | 14.47598 | 23670 ft | 380 kts | 292° |
| 2026-05-04 20:26 | 55.16087 | 14.43426 | 22968 ft | 389 kts | 293° |
| 2026-05-04 20:26 | 55.17313 | 14.39190 | 22271 ft | 390 kts | 294° |
| 2026-05-04 20:26 | 55.18536 | 14.34972 | 21609 ft | 386 kts | 294° |
| 2026-05-04 20:27 | 55.19744 | 14.30803 | 20985 ft | 382 kts | 294° |
| 2026-05-04 20:27 | 55.20924 | 14.26722 | 20364 ft | 378 kts | 294° |
| 2026-05-04 20:27 | 55.22103 | 14.22630 | 19763 ft | 375 kts | 294° |
| 2026-05-04 20:27 | 55.23274 | 14.18563 | 19153 ft | 372 kts | 294° |
| 2026-05-04 20:28 | 55.24434 | 14.14523 | 18546 ft | 369 kts | 294° |
| 2026-05-04 20:28 | 55.25580 | 14.10526 | 17905 ft | 367 kts | 294° |
| 2026-05-04 20:28 | 55.26722 | 14.06535 | 17240 ft | 364 kts | 294° |
| 2026-05-04 20:28 | 55.27850 | 14.02593 | 16625 ft | 360 kts | 294° |
| 2026-05-04 20:29 | 55.28969 | 13.98682 | 16011 ft | 357 kts | 294° |
| 2026-05-04 20:29 | 55.30074 | 13.94808 | 15425 ft | 353 kts | 294° |
| 2026-05-04 20:29 | 55.31168 | 13.90968 | 14852 ft | 350 kts | 294° |
| 2026-05-04 20:29 | 55.32251 | 13.87160 | 14261 ft | 347 kts | 294° |
| 2026-05-04 20:30 | 55.33324 | 13.83381 | 13673 ft | 344 kts | 294° |
| 2026-05-04 20:30 | 55.34385 | 13.79637 | 13044 ft | 341 kts | 294° |
| 2026-05-04 20:30 | 55.35436 | 13.75925 | 12446 ft | 337 kts | 294° |
| 2026-05-04 20:30 | 55.36473 | 13.72251 | 11864 ft | 333 kts | 294° |
| 2026-05-04 20:31 | 55.37497 | 13.68621 | 11315 ft | 330 kts | 294° |
| 2026-05-04 20:31 | 55.38512 | 13.65024 | 10763 ft | 326 kts | 294° |
| 2026-05-04 20:31 | 55.39503 | 13.61502 | 10547 ft | 313 kts | 294° |
| 2026-05-04 20:31 | 55.40446 | 13.58149 | 10390 ft | 299 kts | 294° |
| 2026-05-04 20:32 | 55.41321 | 13.54917 | 10264 ft | 285 kts | 290° |
| 2026-05-04 20:32 | 55.41937 | 13.51704 | 10133 ft | 270 kts | 284° |
| 2026-05-04 20:32 | 55.42437 | 13.48635 | 10021 ft | 258 kts | 284° |
| 2026-05-04 20:32 | 55.42918 | 13.45665 | 9867 ft | 249 kts | 284° |
| 2026-05-04 20:33 | 55.43405 | 13.42717 | 9574 ft | 252 kts | 284° |
| 2026-05-04 20:33 | 55.43913 | 13.39714 | 9239 ft | 260 kts | 285° |
| 2026-05-04 20:33 | 55.44442 | 13.36629 | 8905 ft | 265 kts | 285° |
| 2026-05-04 20:33 | 55.44975 | 13.33535 | 8552 ft | 262 kts | 285° |
| 2026-05-04 20:34 | 55.45500 | 13.30490 | 8215 ft | 257 kts | 285° |
| 2026-05-04 20:34 | 55.45950 | 13.27506 | 7919 ft | 243 kts | 275° |
| 2026-05-04 20:34 | 55.45862 | 13.24603 | 7835 ft | 240 kts | 263° |
| 2026-05-04 20:34 | 55.45657 | 13.21581 | 7722 ft | 254 kts | 264° |
| 2026-05-04 20:35 | 55.45464 | 13.18465 | 7589 ft | 257 kts | 264° |
| 2026-05-04 20:35 | 55.45271 | 13.15328 | 7460 ft | 257 kts | 264° |
| 2026-05-04 20:35 | 55.45079 | 13.12211 | 7360 ft | 256 kts | 264° |
| 2026-05-04 20:35 | 55.44887 | 13.09097 | 7242 ft | 255 kts | 264° |
| 2026-05-04 20:36 | 55.44695 | 13.05985 | 7125 ft | 255 kts | 264° |
| 2026-05-04 20:36 | 55.44505 | 13.02922 | 7017 ft | 255 kts | 264° |
| 2026-05-04 20:36 | 55.44311 | 12.99817 | 6886 ft | 255 kts | 264° |
| 2026-05-04 20:36 | 55.44117 | 12.96720 | 6761 ft | 254 kts | 264° |
| 2026-05-04 20:37 | 55.43988 | 12.93641 | 6603 ft | 249 kts | 273° |
| 2026-05-04 20:37 | 55.44463 | 12.90716 | 6245 ft | 249 kts | 292° |
| 2026-05-04 20:37 | 55.45155 | 12.87899 | 5744 ft | 251 kts | 291° |
| 2026-05-04 20:37 | 55.45824 | 12.85038 | 5229 ft | 253 kts | 290° |
| 2026-05-04 20:38 | 55.46669 | 12.82356 | 4596 ft | 255 kts | 311° |
| 2026-05-04 20:38 | 55.48180 | 12.80722 | 4273 ft | 262 kts | 341° |
| 2026-05-04 20:38 | 55.49996 | 12.80349 | 4080 ft | 262 kts | 2° |
| 2026-05-04 20:38 | 55.51701 | 12.81055 | 3991 ft | 248 kts | 15° |
| 2026-05-04 20:39 | 55.53294 | 12.82016 | 3981 ft | 236 kts | 16° |
| 2026-05-04 20:39 | 55.54857 | 12.82962 | 3998 ft | 238 kts | 15° |
| 2026-05-04 20:39 | 55.56412 | 12.83974 | 4000 ft | 239 kts | 19° |
| 2026-05-04 20:39 | 55.57939 | 12.85099 | 3992 ft | 237 kts | 20° |
| 2026-05-04 20:40 | 55.59454 | 12.86213 | 3989 ft | 235 kts | 19° |
| 2026-05-04 20:40 | 55.60963 | 12.87311 | 3990 ft | 233 kts | 19° |
| 2026-05-04 20:40 | 55.62459 | 12.88408 | 3995 ft | 232 kts | 22° |
| 2026-05-04 20:40 | 55.63804 | 12.90016 | 4009 ft | 239 kts | 38° |
| 2026-05-04 20:41 | 55.65047 | 12.92009 | 3957 ft | 241 kts | 40° |
| 2026-05-04 20:41 | 55.66270 | 12.94013 | 3953 ft | 239 kts | 39° |
| 2026-05-04 20:41 | 55.67502 | 12.95993 | 3956 ft | 240 kts | 39° |
| 2026-05-04 20:41 | 55.68749 | 12.97970 | 3955 ft | 241 kts | 39° |
| 2026-05-04 20:42 | 55.70008 | 12.99952 | 3955 ft | 241 kts | 38° |
| 2026-05-04 20:42 | 55.71266 | 13.01928 | 3954 ft | 242 kts | 38° |
| 2026-05-04 20:42 | 55.72517 | 13.03932 | 3917 ft | 244 kts | 39° |
| 2026-05-04 20:42 | 55.73798 | 13.05859 | 3731 ft | 240 kts | 28° |
| 2026-05-04 20:43 | 55.75341 | 13.06671 | 3643 ft | 228 kts | 355° |
| 2026-05-04 20:43 | 55.76808 | 13.05896 | 3556 ft | 219 kts | 322° |
| 2026-05-04 20:43 | 55.77896 | 13.04060 | 3498 ft | 216 kts | 311° |
| 2026-05-04 20:43 | 55.78927 | 13.02072 | 3416 ft | 220 kts | 311° |
| 2026-05-04 20:44 | 55.79934 | 13.00010 | 3335 ft | 220 kts | 304° |
| 2026-05-04 20:44 | 55.80461 | 12.97511 | 3256 ft | 218 kts | 271° |
| 2026-05-04 20:44 | 55.80066 | 12.94956 | 3187 ft | 215 kts | 238° |
| 2026-05-04 20:44 | 55.79125 | 12.92997 | 3079 ft | 203 kts | 231° |
| 2026-05-04 20:45 | 55.78164 | 12.91208 | 3004 ft | 198 kts | 227° |
| 2026-05-04 20:45 | 55.77160 | 12.89540 | 3003 ft | 197 kts | 225° |
| 2026-05-04 20:45 | 55.76154 | 12.87946 | 3005 ft | 192 kts | 224° |
| 2026-05-04 20:45 | 55.75178 | 12.86420 | 3016 ft | 182 kts | 224° |
| 2026-05-04 20:46 | 55.74240 | 12.84957 | 3001 ft | 179 kts | 224° |
| 2026-05-04 20:46 | 55.73299 | 12.83487 | 2871 ft | 183 kts | 224° |
| 2026-05-04 20:46 | 55.72339 | 12.81989 | 2631 ft | 184 kts | 225° |
| 2026-05-04 20:46 | 55.71382 | 12.80499 | 2395 ft | 183 kts | 225° |
| 2026-05-04 20:47 | 55.70428 | 12.79013 | 2132 ft | 181 kts | 225° |
| 2026-05-04 20:47 | 55.69503 | 12.77576 | 1912 ft | 169 kts | 225° |
| 2026-05-04 20:47 | 55.68652 | 12.76252 | 1671 ft | 158 kts | 225° |
| 2026-05-04 20:47 | 55.67823 | 12.74959 | 1461 ft | 159 kts | 225° |
| 2026-05-04 20:48 | 55.67018 | 12.73707 | 1238 ft | 148 kts | 225° |
| 2026-05-04 20:48 | 55.66275 | 12.72553 | 1057 ft | 141 kts | 226° |
| 2026-05-04 20:48 | 55.65539 | 12.71408 | 841 ft | 140 kts | 225° |
| 2026-05-04 20:48 | 55.64809 | 12.70274 | 650 ft | 139 kts | 223° |
| 2026-05-04 20:49 | 55.64075 | 12.69136 | 461 ft | 140 kts | 223° |
| 2026-05-04 20:49 | 55.63338 | 12.68000 | 285 ft | 141 kts | 223° |
| 2026-05-04 20:49 | 55.62611 | 12.66860 | 104 ft | 139 kts | 224° |
| 2026-05-04 20:49 | 55.61903 | 12.65761 | 29 ft | 126 kts | 220° |
| 2026-05-04 20:50 | 55.61390 | 12.64966 | 28 ft | 54 kts | 220° |
| 2026-05-04 20:50 | 55.61282 | 12.64714 | 29 ft | 0 kts | 244° |
| 2026-05-04 20:50 | 55.61263 | 12.64640 | 29 ft | 8 kts | 247° |
| 2026-05-04 20:50 | 55.61236 | 12.64510 | 28 ft | 1 kts | 249° |
| 2026-05-04 20:51 | 55.61230 | 12.64481 | 28 ft | 4 kts | 251° |
| 2026-05-04 20:51 | 55.61220 | 12.64426 | 28 ft | 6 kts | 252° |
| 2026-05-04 20:51 | 55.61206 | 12.64347 | 28 ft | 8 kts | 249° |
| 2026-05-04 20:51 | 55.61189 | 12.64243 | 28 ft | 10 kts | 263° |
| 2026-05-04 20:52 | 55.61216 | 12.64131 | 28 ft | 11 kts | 320° |
| 2026-05-04 20:52 | 55.61290 | 12.64125 | 28 ft | 12 kts | 21° |
| 2026-05-04 20:52 | 55.61361 | 12.64206 | 28 ft | 13 kts | 34° |
| 2026-05-04 20:52 | 55.61441 | 12.64293 | 28 ft | 14 kts | 31° |
| 2026-05-04 20:53 | 55.61527 | 12.64392 | 28 ft | 15 kts | 32° |
| 2026-05-04 20:53 | 55.61614 | 12.64493 | 28 ft | 15 kts | 33° |
| 2026-05-04 20:53 | 55.61680 | 12.64570 | 28 ft | 12 kts | 33° |
| 2026-05-04 20:53 | 55.61755 | 12.64656 | 28 ft | 14 kts | 33° |
| 2026-05-04 20:54 | 55.61837 | 12.64749 | 28 ft | 13 kts | 33° |
| 2026-05-04 20:54 | 55.61897 | 12.64818 | 28 ft | 10 kts | 33° |
| 2026-05-04 20:54 | 55.61959 | 12.64889 | 28 ft | 10 kts | 33° |
| 2026-05-04 20:54 | 55.62017 | 12.64956 | 29 ft | 10 kts | 33° |
| 2026-05-04 20:55 | 55.62069 | 12.65016 | 29 ft | 9 kts | 33° |
| 2026-05-04 20:55 | 55.62124 | 12.65080 | 29 ft | 9 kts | 33° |
| 2026-05-04 20:55 | 55.62171 | 12.65134 | 28 ft | 8 kts | 33° |
| 2026-05-04 20:55 | 55.62217 | 12.65181 | 28 ft | 8 kts | 22° |
| 2026-05-04 20:56 | 55.62275 | 12.65195 | 28 ft | 9 kts | 4° |
| 2026-05-04 20:56 | 55.62338 | 12.65204 | 28 ft | 8 kts | 360° |
| 2026-05-04 20:56 | 55.62373 | 12.65202 | 28 ft | 5 kts | 358° |
| 2026-05-04 20:56 | 55.62413 | 12.65197 | 28 ft | 5 kts | 345° |
| 2026-05-04 20:57 | 55.62433 | 12.65141 | 28 ft | 6 kts | 276° |
| 2026-05-04 20:57 | 55.62433 | 12.65098 | 28 ft | 0 kts | 269° |
| 2026-05-04 20:57 | 55.62433 | 12.65086 | 28 ft | 3 kts | 269° |
| 2026-05-04 20:57 | 55.62432 | 12.65074 | 28 ft | 2 kts | 269° |
| 2026-05-04 20:58 | 55.62432 | 12.65054 | 28 ft | 0 kts | 269° |